Terminal Aerodrome Forecast
Issued by NWS

Home | Current Version | Previous Version | Text Only | Print | Product List | Glossary On
Versions: 1 2 3 4 5 6 7 8 9 10 11 12 13 14
000
FTUS44 KTSA 300800 AAB
TAFBVO
TAF AMD
KBVO 300807Z 3008/0106 00000KT 4SM BR FEW250
      TEMPO 3008/3012 2SM BR
     FM301300 18005KT P6SM FEW250
     FM301700 17012G18KT P6SM SCT060
     FM010000 18007KT P6SM SCT250=

USA.gov is the U.S. government's official web portal to all federal, state and local government web resources and services.